createdAt,value
2023-03-03T00:00:51.413Z,1.60
2023-03-03T00:03:26.060Z,1.60
2023-03-03T00:05:58.995Z,1.60
2023-03-03T00:08:32.538Z,1.60
2023-03-03T00:11:06.163Z,1.60
2023-03-03T00:13:48.015Z,1.60
2023-03-03T00:16:23.271Z,1.60
2023-03-03T00:18:56.116Z,1.60
2023-03-03T00:21:29.619Z,1.50
2023-03-03T00:24:21.062Z,1.50
2023-03-03T00:26:57.169Z,1.50
2023-03-03T00:29:40.580Z,1.50
2023-03-03T00:32:15.111Z,1.40
2023-03-03T00:34:47.371Z,1.40
2023-03-03T00:37:34.535Z,1.40
2023-03-03T00:40:12.155Z,1.40
2023-03-03T00:42:50.072Z,1.40
2023-03-03T00:45:29.905Z,1.30
2023-03-03T00:48:30.041Z,1.30
2023-03-03T00:51:06.588Z,1.30
2023-03-03T00:53:38.361Z,1.40
2023-03-03T00:56:10.099Z,1.30
2023-03-03T00:58:41.896Z,1.20
2023-03-03T01:01:14.824Z,1.20
2023-03-03T01:03:46.614Z,1.10
2023-03-03T01:06:18.398Z,1.10
2023-03-03T01:08:50.333Z,1.00
2023-03-03T01:11:24.846Z,1.00
2023-03-03T01:13:57.046Z,0.90
2023-03-03T01:16:29.143Z,0.90
2023-03-03T01:19:00.956Z,0.80
2023-03-03T01:21:32.632Z,0.80
2023-03-03T01:24:04.471Z,0.70
2023-03-03T01:26:36.147Z,0.60
2023-03-03T01:29:07.901Z,0.60
2023-03-03T01:31:40.405Z,0.60
2023-03-03T01:34:12.262Z,0.60
2023-03-03T01:36:44.044Z,0.50
2023-03-03T01:39:15.757Z,0.40
2023-03-03T01:41:47.594Z,0.40
2023-03-03T01:44:19.423Z,0.40
2023-03-03T01:47:35.612Z,0.30
2023-03-03T01:50:14.084Z,0.30
2023-03-03T01:52:47.333Z,0.30
2023-03-03T01:55:34.195Z,0.20
2023-03-03T01:58:17.794Z,0.20
2023-03-03T02:00:53.426Z,0.10
2023-03-03T02:03:25.420Z,0.20
2023-03-03T02:06:03.117Z,0.10
2023-03-03T02:08:54.269Z,0.10
2023-03-03T02:11:27.540Z,0.10
2023-03-03T02:13:59.343Z,0.10
2023-03-03T02:16:31.434Z,0.10
2023-03-03T02:19:07.954Z,0.10
2023-03-03T02:21:39.662Z,0.10
2023-03-03T02:24:20.392Z,0.10
2023-03-03T02:26:52.462Z,0.10
2023-03-03T02:29:24.236Z,0.10
2023-03-03T02:31:56.063Z,0.00
2023-03-03T02:34:27.897Z,0.00
2023-03-03T02:36:59.553Z,0.00
2023-03-03T02:39:31.248Z,0.00
2023-03-03T02:42:21.632Z,0.00
2023-03-03T02:44:54.132Z,0.00
2023-03-03T02:47:25.842Z,0.00
2023-03-03T02:49:57.509Z,-0.10
2023-03-03T02:52:29.192Z,-0.10
2023-03-03T02:55:00.923Z,-0.10
2023-03-03T02:57:32.605Z,-0.10
2023-03-03T03:00:05.377Z,-0.10
2023-03-03T03:02:37.159Z,-0.20
2023-03-03T03:05:09.054Z,-0.20
2023-03-03T03:07:41.862Z,-0.10
2023-03-03T03:10:13.697Z,0.00
2023-03-03T03:12:45.546Z,0.00
2023-03-03T03:15:17.237Z,0.10
2023-03-03T03:17:48.945Z,0.20
2023-03-03T03:20:20.689Z,0.20
2023-03-03T03:22:52.610Z,0.30
2023-03-03T03:25:24.311Z,0.30
2023-03-03T03:27:55.988Z,0.30
2023-03-03T03:30:27.801Z,0.40
2023-03-03T03:32:59.627Z,0.50
2023-03-03T03:35:33.582Z,0.50
2023-03-03T03:38:05.382Z,0.60
2023-03-03T03:40:37.074Z,0.70
2023-03-03T03:43:09.180Z,0.80
2023-03-03T03:45:43.601Z,0.80
2023-03-03T03:48:16.785Z,0.80
2023-03-03T03:50:49.473Z,0.90
2023-03-03T03:53:21.175Z,0.90
2023-03-03T03:55:52.970Z,1.00
2023-03-03T03:58:24.843Z,1.00
2023-03-03T04:01:05.684Z,1.00
2023-03-03T04:03:37.527Z,1.10
2023-03-03T04:06:09.284Z,1.10
2023-03-03T04:08:41.062Z,1.20
2023-03-03T04:11:12.891Z,1.20
2023-03-03T04:13:44.598Z,1.20
2023-03-03T04:16:16.424Z,1.30
2023-03-03T04:18:48.095Z,1.40
2023-03-03T04:21:20.371Z,1.50
2023-03-03T04:23:53.351Z,1.60
2023-03-03T04:26:25.281Z,1.60
2023-03-03T04:28:57.120Z,1.50
2023-03-03T04:31:28.956Z,1.50
2023-03-03T04:34:00.730Z,1.40
2023-03-03T04:36:32.483Z,1.30
2023-03-03T04:39:04.335Z,1.30
2023-03-03T04:41:36.081Z,1.30
2023-03-03T04:44:07.829Z,1.30
2023-03-03T04:46:39.550Z,1.40
2023-03-03T04:49:12.611Z,1.40
2023-03-03T04:51:44.447Z,1.30
2023-03-03T04:54:16.127Z,1.30
2023-03-03T04:56:47.846Z,1.30
2023-03-03T04:59:19.561Z,1.30
2023-03-03T05:01:51.409Z,1.30
2023-03-03T05:04:23.167Z,1.40
2023-03-03T05:06:54.905Z,1.40
2023-03-03T05:09:26.619Z,1.30
2023-03-03T05:11:58.406Z,1.40
2023-03-03T05:14:31.428Z,1.30
2023-03-03T05:17:04.645Z,1.40
2023-03-03T05:19:36.470Z,1.40
2023-03-03T05:22:08.296Z,1.40
2023-03-03T05:24:40.013Z,1.30
2023-03-03T05:27:11.905Z,1.30
2023-03-03T05:29:43.751Z,1.40
2023-03-03T05:32:15.812Z,1.30
2023-03-03T05:34:47.668Z,1.40
2023-03-03T05:37:19.419Z,1.40
2023-03-03T05:39:51.310Z,1.40
2023-03-03T05:42:23.080Z,1.50
2023-03-03T05:44:54.903Z,1.50
2023-03-03T05:47:26.681Z,1.50
2023-03-03T05:49:58.357Z,1.50
2023-03-03T05:52:30.252Z,1.60
2023-03-03T05:55:01.932Z,1.60
2023-03-03T05:57:33.887Z,1.60
2023-03-03T06:00:06.448Z,1.50
2023-03-03T06:02:38.153Z,1.60
2023-03-03T06:05:10.431Z,1.60
2023-03-03T06:07:42.421Z,1.60
2023-03-03T06:10:14.243Z,1.60
2023-03-03T06:12:46.010Z,1.60
2023-03-03T06:15:18.312Z,1.60
2023-03-03T06:17:50.258Z,1.60
2023-03-03T06:20:21.982Z,1.60
2023-03-03T06:22:53.725Z,1.60
2023-03-03T06:25:25.553Z,1.70
2023-03-03T06:27:58.060Z,1.60
2023-03-03T06:30:30.708Z,1.60
2023-03-03T06:33:02.444Z,1.60
2023-03-03T06:35:34.149Z,1.70
2023-03-03T06:38:05.988Z,1.70
2023-03-03T06:40:37.706Z,1.70
2023-03-03T06:43:09.926Z,1.70
2023-03-03T06:45:41.786Z,1.80
2023-03-03T06:48:13.513Z,1.80
2023-03-03T06:50:45.205Z,1.90
2023-03-03T06:53:18.886Z,1.90
2023-03-03T06:55:50.620Z,1.90
2023-03-03T06:58:24.522Z,1.90
2023-03-03T07:01:00.978Z,1.90
2023-03-03T07:03:36.201Z,2.00
2023-03-03T07:06:34.065Z,2.00
2023-03-03T07:09:13.237Z,2.00
2023-03-03T07:11:46.579Z,2.10
2023-03-03T07:14:20.172Z,2.20
2023-03-03T07:17:00.202Z,2.20
2023-03-03T07:19:35.591Z,2.40
2023-03-03T07:22:18.981Z,2.50
2023-03-03T07:25:01.976Z,2.60
2023-03-03T07:27:34.326Z,2.60
2023-03-03T07:30:12.141Z,2.60
2023-03-03T07:32:46.810Z,2.70
2023-03-03T07:35:38.838Z,2.80
2023-03-03T07:38:44.005Z,2.80
2023-03-03T07:41:23.471Z,2.80
2023-03-03T07:44:05.330Z,2.90
2023-03-03T07:46:44.631Z,2.90
2023-03-03T07:49:23.941Z,2.90
2023-03-03T07:51:57.837Z,3.00
2023-03-03T07:54:36.317Z,3.00
2023-03-03T07:57:27.509Z,3.10
2023-03-03T08:00:16.654Z,3.40
2023-03-03T08:03:03.087Z,3.50
2023-03-03T08:05:46.940Z,3.50
2023-03-03T08:08:31.095Z,3.70
2023-03-03T08:11:04.417Z,3.80
2023-03-03T08:13:38.072Z,3.80
2023-03-03T08:16:09.898Z,3.90
2023-03-03T08:18:48.320Z,4.00
2023-03-03T08:21:22.478Z,4.10
2023-03-03T08:23:54.365Z,4.20
2023-03-03T08:26:27.259Z,4.10
2023-03-03T08:28:58.944Z,4.00
2023-03-03T08:31:40.798Z,4.20
2023-03-03T08:34:13.491Z,4.40
2023-03-03T08:36:47.377Z,4.50
2023-03-03T08:39:19.130Z,4.70
2023-03-03T08:41:50.834Z,4.80
2023-03-03T08:44:22.555Z,4.90
2023-03-03T08:46:54.247Z,4.80
2023-03-03T08:49:25.964Z,4.80
2023-03-03T08:51:58.013Z,4.80
2023-03-03T08:54:30.028Z,4.80
2023-03-03T08:57:01.704Z,4.90
2023-03-03T08:59:37.761Z,4.90
2023-03-03T09:02:09.525Z,4.90
2023-03-03T09:04:41.313Z,5.00
2023-03-03T09:07:13.028Z,5.00
2023-03-03T09:09:45.269Z,5.10
2023-03-03T09:12:27.642Z,5.00
2023-03-03T09:15:07.769Z,5.00
2023-03-03T09:17:39.559Z,5.10
2023-03-03T09:20:32.607Z,5.30
2023-03-03T09:23:22.674Z,5.50
2023-03-03T09:25:54.494Z,5.80
2023-03-03T09:28:30.539Z,6.00
2023-03-03T09:31:07.404Z,6.10
2023-03-03T09:33:45.471Z,6.10
2023-03-03T09:36:29.423Z,6.30
2023-03-03T09:39:10.367Z,6.50
2023-03-03T09:41:57.264Z,6.60
2023-03-03T09:44:53.489Z,6.80
2023-03-03T09:47:33.227Z,6.80
2023-03-03T09:50:23.978Z,6.80
2023-03-03T09:53:17.242Z,6.90
2023-03-03T09:56:18.604Z,7.10
2023-03-03T09:59:05.025Z,7.40
2023-03-03T10:01:48.676Z,7.60
2023-03-03T10:04:59.745Z,7.80
2023-03-03T10:07:51.623Z,8.20
2023-03-03T10:10:51.324Z,9.50
2023-03-03T10:13:35.031Z,10.80
2023-03-03T10:16:50.580Z,11.30
2023-03-03T10:19:39.003Z,10.80
2023-03-03T10:22:40.636Z,10.10
2023-03-03T10:25:16.714Z,9.90
2023-03-03T10:28:18.672Z,9.90
2023-03-03T10:31:17.656Z,10.00
2023-03-03T10:34:04.843Z,9.90
2023-03-03T10:37:05.476Z,9.70
2023-03-03T10:40:14.908Z,9.40
2023-03-03T10:43:26.094Z,9.90
2023-03-03T10:46:10.759Z,10.00
2023-03-03T10:48:56.426Z,9.60
2023-03-03T10:51:39.569Z,9.70
2023-03-03T10:54:38.166Z,9.90
2023-03-03T10:57:40.748Z,9.70
2023-03-03T11:00:24.347Z,10.00
2023-03-03T11:03:26.397Z,11.40
2023-03-03T11:06:17.299Z,11.30
2023-03-03T11:08:57.888Z,12.20
2023-03-03T11:11:48.622Z,13.00
2023-03-03T11:14:24.412Z,13.00
2023-03-03T11:17:34.147Z,12.90
2023-03-03T11:20:37.347Z,13.10
2023-03-03T11:23:08.972Z,12.40
2023-03-03T11:25:58.717Z,11.90
2023-03-03T11:28:44.878Z,11.80
2023-03-03T11:31:32.143Z,11.30
2023-03-03T11:34:41.586Z,10.70
2023-03-03T11:37:27.376Z,10.40
2023-03-03T11:40:09.779Z,10.20
2023-03-03T11:42:54.512Z,10.10
2023-03-03T11:45:56.325Z,9.80
2023-03-03T11:48:56.576Z,9.50
2023-03-03T11:51:39.173Z,9.50
2023-03-03T11:54:25.085Z,9.30
2023-03-03T11:57:32.887Z,9.50
2023-03-03T12:01:03.997Z,9.30
2023-03-03T12:03:49.220Z,9.20
2023-03-03T12:06:40.626Z,8.80
2023-03-03T12:09:35.444Z,8.60
2023-03-03T12:12:10.805Z,8.80
2023-03-03T12:14:57.764Z,8.80
2023-03-03T12:17:50.506Z,8.80
2023-03-03T12:20:25.724Z,8.90
2023-03-03T12:23:15.892Z,9.00
2023-03-03T12:26:08.589Z,9.10
2023-03-03T12:28:59.669Z,9.10
2023-03-03T12:31:39.171Z,9.00
2023-03-03T12:34:28.858Z,8.80
2023-03-03T12:37:38.880Z,8.70
2023-03-03T12:40:20.346Z,8.60
2023-03-03T12:43:16.515Z,8.40
2023-03-03T12:45:58.655Z,8.40
2023-03-03T12:48:46.410Z,8.40
2023-03-03T12:51:26.502Z,8.30
2023-03-03T12:54:13.554Z,8.30
2023-03-03T12:56:54.132Z,8.20
2023-03-03T13:00:09.621Z,8.20
2023-03-03T13:02:58.554Z,8.30
2023-03-03T13:05:48.601Z,8.30
2023-03-03T13:08:20.390Z,8.30
2023-03-03T13:11:09.610Z,8.40
2023-03-03T13:13:48.372Z,8.50
2023-03-03T13:16:41.460Z,8.70
2023-03-03T13:19:26.873Z,8.70
2023-03-03T13:22:49.953Z,8.50
2023-03-03T13:25:31.500Z,8.40
2023-03-03T13:28:12.844Z,8.50
2023-03-03T13:30:49.930Z,8.50
2023-03-03T13:33:32.461Z,8.50
2023-03-03T13:36:13.518Z,8.50
2023-03-03T13:38:52.131Z,8.50
2023-03-03T13:41:49.229Z,8.60
2023-03-03T13:44:27.372Z,8.50
2023-03-03T13:47:23.413Z,8.50
2023-03-03T13:50:04.707Z,8.40
2023-03-03T13:53:04.093Z,8.40
2023-03-03T13:55:53.490Z,8.30
2023-03-03T13:59:10.460Z,8.20
2023-03-03T14:02:32.772Z,8.30
2023-03-03T14:05:34.362Z,8.30
2023-03-03T14:08:36.486Z,8.20
2023-03-03T14:11:19.860Z,8.20
2023-03-03T14:14:16.252Z,8.20
2023-03-03T14:17:06.150Z,8.10
2023-03-03T14:19:48.804Z,8.20
2023-03-03T14:22:32.430Z,8.10
2023-03-03T14:25:10.009Z,8.20
2023-03-03T14:28:13.935Z,8.10
2023-03-03T14:30:45.704Z,8.00
2023-03-03T14:33:21.463Z,8.00
2023-03-03T14:36:03.951Z,8.00
2023-03-03T14:38:41.231Z,7.90
2023-03-03T14:41:14.778Z,7.90
2023-03-03T14:44:00.605Z,7.90
2023-03-03T14:46:39.620Z,7.90
2023-03-03T14:49:31.827Z,7.90
2023-03-03T14:52:15.573Z,7.80
2023-03-03T14:54:52.957Z,7.80
2023-03-03T14:57:51.265Z,7.80
2023-03-03T15:00:22.943Z,7.80
2023-03-03T15:03:27.253Z,7.70
2023-03-03T15:05:59.075Z,7.70
2023-03-03T15:08:35.575Z,7.70
2023-03-03T15:11:13.344Z,7.70
2023-03-03T15:13:45.748Z,7.70
2023-03-03T15:16:25.176Z,7.70
2023-03-03T15:19:08.820Z,7.60
2023-03-03T15:21:55.323Z,7.50
2023-03-03T15:24:50.513Z,7.50
2023-03-03T15:27:35.451Z,7.50
2023-03-03T15:30:24.963Z,7.50
2023-03-03T15:33:29.314Z,7.40
2023-03-03T15:36:44.060Z,7.30
2023-03-03T15:40:07.098Z,7.30
2023-03-03T15:42:41.847Z,7.20
2023-03-03T15:45:19.582Z,7.20
2023-03-03T15:48:22.756Z,7.20
2023-03-03T15:51:16.148Z,7.10
2023-03-03T15:54:15.077Z,7.10
2023-03-03T15:56:50.794Z,7.10
2023-03-03T15:59:34.296Z,7.00
2023-03-03T16:02:33.205Z,6.90
2023-03-03T16:05:15.125Z,6.90
2023-03-03T16:07:53.241Z,6.80
2023-03-03T16:10:53.068Z,6.80
2023-03-03T16:13:59.466Z,6.80
2023-03-03T16:16:48.965Z,6.70
2023-03-03T16:19:38.699Z,6.60
2023-03-03T16:22:16.121Z,6.50
2023-03-03T16:25:06.681Z,6.40
2023-03-03T16:27:51.963Z,6.30
2023-03-03T16:30:34.931Z,6.30
2023-03-03T16:33:19.361Z,6.20
2023-03-03T16:36:03.536Z,6.00
2023-03-03T16:38:40.306Z,6.00
2023-03-03T16:41:17.555Z,5.90
2023-03-03T16:44:13.657Z,5.90
2023-03-03T16:46:49.250Z,5.80
2023-03-03T16:49:45.672Z,5.70
2023-03-03T16:52:24.238Z,5.60
2023-03-03T16:55:07.782Z,5.50
2023-03-03T16:57:53.275Z,5.30
2023-03-03T17:00:38.108Z,5.30
2023-03-03T17:03:32.724Z,5.20
2023-03-03T17:06:13.477Z,5.10
2023-03-03T17:09:30.114Z,5.00
2023-03-03T17:12:09.557Z,4.80
2023-03-03T17:14:49.742Z,4.60
2023-03-03T17:17:32.015Z,4.60
2023-03-03T17:20:35.554Z,4.50
2023-03-03T17:23:17.477Z,4.40
2023-03-03T17:26:03.336Z,4.30
2023-03-03T17:29:01.309Z,4.20
2023-03-03T17:32:04.003Z,4.20
2023-03-03T17:34:42.593Z,4.10
2023-03-03T17:37:31.496Z,4.10
2023-03-03T17:40:16.727Z,4.00
2023-03-03T17:43:15.034Z,3.90
2023-03-03T17:45:49.842Z,3.80
2023-03-03T17:48:51.640Z,3.70
2023-03-03T17:51:46.690Z,3.70
2023-03-03T17:54:36.845Z,3.60
2023-03-03T17:57:32.374Z,3.60
2023-03-03T18:00:07.242Z,3.50
2023-03-03T18:02:57.849Z,3.40
2023-03-03T18:06:00.136Z,3.30
2023-03-03T18:08:50.542Z,3.30
2023-03-03T18:11:25.091Z,3.20
2023-03-03T18:14:07.049Z,3.10
2023-03-03T18:17:40.062Z,3.10
2023-03-03T18:20:24.060Z,3.00
2023-03-03T18:22:56.115Z,3.00
2023-03-03T18:25:59.934Z,2.90
2023-03-03T18:28:49.903Z,3.00
2023-03-03T18:31:26.924Z,3.00
2023-03-03T18:34:20.384Z,2.90
2023-03-03T18:36:55.888Z,2.90
2023-03-03T18:39:41.262Z,2.90
2023-03-03T18:42:39.676Z,2.80
2023-03-03T18:45:11.295Z,2.80
2023-03-03T18:48:15.322Z,2.80
2023-03-03T18:50:49.796Z,2.80
2023-03-03T18:53:34.531Z,2.80
2023-03-03T18:56:11.236Z,2.80
2023-03-03T18:58:43.521Z,2.80
2023-03-03T19:01:41.538Z,2.80
2023-03-03T19:04:18.556Z,2.80
2023-03-03T19:06:51.373Z,2.80
2023-03-03T19:09:44.701Z,2.70
2023-03-03T19:16:03.625Z,2.80
2023-03-03T19:18:36.411Z,2.80
2023-03-03T19:21:11.205Z,2.80
2023-03-03T19:24:00.482Z,2.80
2023-03-03T19:27:07.917Z,2.80
2023-03-03T19:29:45.174Z,2.70
2023-03-03T19:32:55.566Z,2.70
2023-03-03T19:35:59.232Z,2.70
2023-03-03T19:38:33.840Z,2.70
2023-03-03T19:41:46.262Z,2.70
2023-03-03T19:44:42.248Z,2.70
2023-03-03T19:47:48.160Z,2.80
2023-03-03T19:50:41.392Z,2.80
2023-03-03T19:53:30.789Z,2.70
2023-03-03T19:56:46.895Z,2.70
2023-03-03T19:59:21.327Z,2.70
2023-03-03T20:02:01.995Z,2.60
2023-03-03T20:04:53.263Z,2.60
2023-03-03T20:07:45.975Z,2.60
2023-03-03T20:10:41.829Z,2.60
2023-03-03T20:13:25.664Z,2.50
2023-03-03T20:16:16.231Z,2.40
2023-03-03T20:19:00.766Z,2.30
2023-03-03T20:21:34.089Z,2.30
2023-03-03T20:24:27.505Z,2.30
2023-03-03T20:27:08.825Z,2.30
2023-03-03T20:29:54.269Z,2.20
2023-03-03T20:32:44.660Z,2.20
2023-03-03T20:35:53.389Z,2.10
2023-03-03T20:38:40.204Z,2.10
2023-03-03T20:42:05.739Z,2.10
2023-03-03T20:44:49.440Z,2.10
2023-03-03T20:47:42.585Z,2.10
2023-03-03T20:50:15.568Z,2.00
2023-03-03T20:53:07.658Z,1.90
2023-03-03T20:56:03.712Z,1.90
2023-03-03T20:58:54.744Z,1.90
2023-03-03T21:01:29.485Z,1.80
2023-03-03T21:04:23.168Z,1.80
2023-03-03T21:06:55.520Z,1.80
2023-03-03T21:09:35.103Z,1.80
2023-03-03T21:12:27.548Z,1.80
2023-03-03T21:15:35.881Z,1.80
2023-03-03T21:18:26.714Z,1.70
2023-03-03T21:20:59.601Z,1.70
2023-03-03T21:23:31.368Z,1.70
2023-03-03T21:26:03.397Z,1.70
2023-03-03T21:28:35.159Z,1.60
2023-03-03T21:31:08.785Z,1.60
2023-03-03T21:33:56.821Z,1.50
2023-03-03T21:36:37.616Z,1.50
2023-03-03T21:39:23.167Z,1.50
2023-03-03T21:42:06.456Z,1.50
2023-03-03T21:44:49.799Z,1.50
2023-03-03T21:47:23.953Z,1.50
2023-03-03T21:49:55.655Z,1.50
2023-03-03T21:52:27.388Z,1.50
2023-03-03T21:54:59.090Z,1.50
2023-03-03T21:57:31.131Z,1.50
2023-03-03T22:00:05.607Z,1.50
2023-03-03T22:02:37.601Z,1.40
2023-03-03T22:05:09.867Z,1.40
2023-03-03T22:07:41.554Z,1.40
2023-03-03T22:10:13.214Z,1.30
2023-03-03T22:12:44.948Z,1.40
2023-03-03T22:15:16.761Z,1.30
2023-03-03T22:17:48.481Z,1.30
2023-03-03T22:20:20.550Z,1.30
2023-03-03T22:22:52.276Z,1.30
2023-03-03T22:25:24.029Z,1.30
2023-03-03T22:27:55.766Z,1.30
2023-03-03T22:30:27.582Z,1.30
2023-03-03T22:32:59.270Z,1.30
2023-03-03T22:35:31.225Z,1.30
2023-03-03T22:38:03.470Z,1.20
2023-03-03T22:40:35.194Z,1.20
2023-03-03T22:43:07.059Z,1.20
2023-03-03T22:45:38.825Z,1.10
2023-03-03T22:48:11.357Z,1.20
2023-03-03T22:50:45.180Z,1.20
2023-03-03T22:53:16.951Z,1.10
2023-03-03T22:55:48.641Z,1.10
2023-03-03T22:58:21.179Z,1.10
2023-03-03T23:00:54.135Z,1.00
2023-03-03T23:03:25.933Z,1.00
2023-03-03T23:05:57.648Z,1.00
2023-03-03T23:08:29.366Z,0.90
2023-03-03T23:11:01.026Z,0.90
2023-03-03T23:13:32.913Z,0.90
2023-03-03T23:16:05.164Z,0.80
2023-03-03T23:18:36.947Z,0.80
2023-03-03T23:21:08.662Z,0.80
2023-03-03T23:23:40.344Z,0.90
2023-03-03T23:26:12.329Z,0.80
2023-03-03T23:28:44.312Z,0.80
2023-03-03T23:31:16.060Z,0.80
2023-03-03T23:33:47.977Z,0.70
2023-03-03T23:36:19.693Z,0.70
2023-03-03T23:38:51.367Z,0.70
2023-03-03T23:41:23.026Z,0.70
2023-03-03T23:43:54.699Z,0.70
2023-03-03T23:46:26.424Z,0.60
2023-03-03T23:48:59.865Z,0.60
2023-03-03T23:51:32.066Z,0.60
2023-03-03T23:54:03.844Z,0.60
2023-03-03T23:56:35.594Z,0.50
2023-03-03T23:59:07.268Z,0.50
